• Join FlightAware (Why Join?)
  • Login
  • US Flag 
05:18AM EDT


 

Airport Tracker/Info


-or-


 

Live Flight TrackerFlight Track Log ✈ N12SN ✈ 26-Jun-2013 ✈ KDKX - KORL

Flight Track Log - Related Links

Times and Time Zones

All times are in EDT time to prevent confusion due to time zone crossing. See the N12SN flight status page for this flight to view local times or setup timezone preferences in your user account.

Time Position Orientation Groundspeed Altitude Reporting Facility
EDT Latitude Longitude Course Direction KTS MPH feet Rate Location/Type
10:15AM 35.6682 -83.7635 165° South  Level Estimated
10:16AM 35.6189 -83.7452 164° South  Level Estimated
10:17AM 35.5698 -83.7266 163° South  Level FlightAware Approximate
10:18AM 35.5205 -83.7080 163° South  Level FlightAware Approximate
10:19AM 35.4714 -83.6894 163° South  Level FlightAware Approximate
10:20AM 35.4221 -83.6709 163° South  Level FlightAware Approximate
10:21AM 35.3728 -83.6527 163° South  Level Estimated
10:22AM 35.3235 -83.6347 163° South  Level FlightAware Approximate
10:22AM 35.4825 -83.9622 163° South 187 215 9,000  Level Atlanta Center
10:23AM 35.2742 -83.6167 163° South  Level FlightAware Approximate
10:23AM 35.4325 -83.9394 160° South 187 215 9,000  Level Atlanta Center
10:24AM 35.2249 -83.5987 163° South  Level FlightAware Approximate
10:24AM 35.3844 -83.9192 161° South 187 215 9,000  Level Atlanta Center
10:25AM 35.1755 -83.5807 163° South  Level FlightAware Approximate
10:25AM 35.3364 -83.9014 163° South 187 215 9,000  Level Atlanta Center
10:26AM 35.1262 -83.5628 163° South  Level FlightAware Approximate
10:26AM 35.2864 -83.8811 162° South 187 215 9,000  Level Atlanta Center
10:27AM 35.0769 -83.5449 163° South  Level FlightAware Approximate
10:27AM 35.2383 -83.8633 163° South 187 215 9,400  Level Atlanta Center
10:28AM 35.0275 -83.5269 163° South  Level FlightAware Approximate
10:28AM 35.1944 -83.8431 159° South 182 209 9,900  Level Atlanta Center
10:29AM 35.1506 -83.8203 157° South 176 203 10,700 540 Climbing Atlanta Center
10:30AM 35.1047 -83.8028 163° South 176 203 11,000 120 Climbing Atlanta Center
10:31AM 35.0544 -83.7775 158° South 176 203 11,000  Level Atlanta Center
10:32AM 35.0022 -83.7572 162° South 190 219 11,000  Level Atlanta Center
10:33AM 34.9542 -83.7397 163° South 190 219 11,000  Level Atlanta Center
10:34AM 34.9042 -83.7144 157° South 190 219 11,100  Climbing Atlanta Center
10:35AM 34.8519 -83.6894 159° South 190 219 11,100  Level Atlanta Center
10:36AM 34.8017 -83.6669 160° South 190 219 11,100  Level Atlanta Center
10:37AM 34.7517 -83.6394 156° South 190 219 11,100  Level Atlanta Center
10:38AM 34.7014 -83.6194 162° South 190 219 11,100  Level Atlanta Center
10:39AM 34.6533 -83.6044 166° South 185 213 11,100  Level Atlanta Center
10:40AM 34.6011 -83.5819 160° South 193 222 11,100  Level Atlanta Center
10:41AM 34.5531 -83.5622 161° South 193 222 11,100  Level Atlanta Center
10:42AM 34.5028 -83.5447 164° South 187 215 11,100  Level Atlanta Center
10:43AM 34.4547 -83.5047 146° Southeast 194 223 11,100  Level Atlanta Center
10:44AM 34.4150 -83.4747 148° Southeast 194 223 11,100  Level Atlanta Center
10:45AM 34.3667 -83.4372 147° Southeast 189 217 11,100 -60 Level Atlanta Center
10:46AM 34.3247 -83.4000 144° Southeast 189 217 11,000 -60 Descending Atlanta Center
10:47AM 34.2808 -83.3625 145° Southeast 188 216 11,000  Level Atlanta Center
10:48AM 34.2283 -83.3353 157° South 194 223 11,000  Level Atlanta Center
10:49AM 34.1761 -83.3106 159° South 194 223 11,000  Level Atlanta Center
10:50AM 34.1258 -83.2961 167° South 196 226 11,000  Level Atlanta Center
10:51AM 34.0717 -83.2814 167° South 202 232 11,000  Level Atlanta Center
10:52AM 34.0214 -83.2694 169° South 197 227 11,000  Level Atlanta Center
10:53AM 33.9669 -83.2547 167° South 202 232 11,000  Level Atlanta Center
10:54AM 33.9147 -83.2403 167° South 196 226 11,000  Level Atlanta Center
10:55AM 33.8625 -83.2258 167° South 202 232 11,000  Level Atlanta Center
10:56AM 33.8103 -83.2136 169° South 195 224 11,000  Level Atlanta Center
10:57AM 33.7558 -83.1992 168° South 195 224 11,000  Level Atlanta Center
10:58AM 33.7100 -83.1872 168° South 201 231 11,000 -60 Level Atlanta Center
10:59AM 33.6575 -83.1753 169° South 194 223 10,900 -60 Descending Atlanta Center
11:00AM 33.6075 -83.1583 164° South 194 223 10,900  Level Atlanta Center
11:01AM 33.5550 -83.1464 169° South 201 231 10,900  Level Atlanta Center
11:02AM 33.5028 -83.1319 167° South 188 216 10,900  Level Atlanta Center
11:03AM 33.4486 -83.1200 170° South 199 229 10,900  Level Atlanta Center
11:04AM 33.3942 -83.1033 166° South 199 229 10,900  Level Atlanta Center
11:05AM 33.3419 -83.0914 169° South 197 227 10,900  Level Atlanta Center
11:06AM 33.2917 -83.0769 166° South 197 227 10,900  Level Atlanta Center
11:07AM 33.2372 -83.0653 170° South 197 227 10,900  Level Atlanta Center
11:08AM 33.1892 -83.0483 164° South 190 219 10,900  Level Atlanta Center
11:09AM 33.1347 -83.0392 172° South 190 219 10,900  Level Atlanta Center
11:10AM 33.0844 -83.0197 162° South 195 224 10,900  Level Atlanta Center
11:11AM 33.0364 -82.9956 157° South 195 224 11,000  Climbing Atlanta Center
11:12AM 32.9861 -82.9789 164° South 189 217 11,000  Level Atlanta Center
11:13AM 32.9358 -82.9547 158° South 189 217 11,000  Level Atlanta Center
11:14AM 32.8875 -82.9381 164° South 189 217 11,000  Level Atlanta Center
11:15AM 32.8372 -82.9189 162° South 189 217 11,000  Level Atlanta Center
11:16AM 32.7850 -82.8997 163° South 189 217 11,000 -60 Level Atlanta Center
11:18AM 32.6864 -82.8556 159° South 191 220 10,900 -60 Descending Jacksonville Center
11:19AM 32.6322 -82.8408 167° South 191 220 10,900  Level Jacksonville Center
11:20AM 32.5819 -82.8186 160° South 191 220 10,900  Level Jacksonville Center
11:21AM 32.5319 -82.7964 159° South 196 226 10,900  Level Jacksonville Center
11:22AM 32.4756 -82.7769 164° South 191 220 10,900  Level Jacksonville Center
11:23AM 32.4358 -82.7622 163° South 191 220 10,900  Level Jacksonville Center
11:24AM 32.3794 -82.7425 164° South 191 220 10,900  Level Jacksonville Center
11:25AM 32.3272 -82.7231 163° South 191 220 10,900  Level Jacksonville Center
11:26AM 32.2792 -82.7033 161° South 191 220 10,900  Level Jacksonville Center
11:27AM 32.2269 -82.6839 163° South 191 220 10,900  Level Jacksonville Center
11:28AM 32.1767 -82.6644 162° South 191 220 10,900  Level Jacksonville Center
11:29AM 32.1244 -82.6619 178° South 186 214 11,000  Climbing Jacksonville Center
11:30AM 32.0681 -82.6522 172° South 181 208 11,000  Level Jacksonville Center
11:31AM 32.0139 -82.6500 178° South 181 208 11,000  Level Jacksonville Center
11:32AM 31.9639 -82.6478 178° South 186 214 11,000  Level Jacksonville Center
11:33AM 31.9075 -82.6431 176° South 191 220 11,000  Level Jacksonville Center
11:34AM 31.8553 -82.6381 175° South 197 227 11,000  Level Jacksonville Center
11:35AM 31.8031 -82.6358 178° South 197 227 11,000  Level Jacksonville Center
11:36AM 31.7528 -82.6311 175° South 192 221 11,000  Level Jacksonville Center
11:37AM 31.6964 -82.6314 180° South 198 228 11,000  Level Jacksonville Center
11:38AM 31.6464 -82.6267 175° South 198 228 11,000  Level Jacksonville Center
11:39AM 31.5942 -82.6219 176° South 198 228 11,000  Level Jacksonville Center
11:40AM 31.5419 -82.6194 178° South 198 228 11,000  Level Jacksonville Center
11:41AM 31.4878 -82.6147 176° South 198 228 11,000  Level Jacksonville Center
11:42AM 31.4356 -82.6125 178° South 198 228 11,000  Level Jacksonville Center
11:43AM 31.3833 -82.6078 176° South 198 228 11,000  Level Jacksonville Center
11:44AM 31.3331 -82.6081 180° South 198 228 11,000  Level Jacksonville Center
11:45AM 31.2808 -82.6058 178° South 198 228 11,000  Level Jacksonville Center
11:46AM 31.2286 -82.5986 173° South 198 228 11,000  Level Jacksonville Center
11:47AM 31.1744 -82.5989 180° South 198 228 11,000  Level Jacksonville Center
11:48AM 31.1244 -82.5917 173° South 198 228 11,000  Level Jacksonville Center
11:49AM 31.0700 -82.5894 178° South 198 228 11,000  Level Jacksonville Center
11:50AM 31.0178 -82.5872 178° South 198 228 11,000  Level Jacksonville Center
11:51AM 30.9656 -82.5847 178° South 198 228 11,000  Level Jacksonville Center
11:52AM 30.9050 -82.5803 176° South 198 228 11,000  Level Jacksonville Center
11:53AM 30.8550 -82.5756 175° South 198 228 11,000  Level Jacksonville Center
11:54AM 30.8006 -82.5733 178° South 198 228 11,000  Level Jacksonville Center
11:55AM 30.7483 -82.5711 178° South 198 228 11,000  Level Jacksonville Center
11:56AM 30.6961 -82.5664 176° South 193 222 11,000  Level Jacksonville Center
11:57AM 30.6439 -82.5642 178° South 198 228 11,000 -60 Level Jacksonville Center
11:58AM 30.5917 -82.5619 178° South 198 228 10,900 -60 Descending Jacksonville Center
11:59AM 30.5397 -82.5572 176° South 198 228 10,900  Level Jacksonville Center
12:00PM 30.4875 -82.5503 173° South 198 228 10,900  Level Jacksonville Center
12:01PM 30.4372 -82.5361 166° South 198 228 10,900  Level Jacksonville Center
12:02PM 30.3869 -82.5194 164° South 198 228 10,900  Level Jacksonville Center
12:03PM 30.3347 -82.5003 162° South 198 228 10,900  Level Jacksonville Center
12:04PM 30.2847 -82.4836 164° South 193 222 10,900  Level Jacksonville Center
12:05PM 30.2344 -82.4742 171° South 193 222 10,900  Level Jacksonville Center
12:06PM 30.1781 -82.4672 174° South 193 222 10,900  Level Jacksonville Center
12:07PM 30.1300 -82.4603 173° South 193 222 10,900  Level Jacksonville Center
12:08PM 30.0778 -82.4461 167° South 193 222 10,900 60 Level Jacksonville Center
12:09PM 30.0506 -82.4294 152° Southeast 191 220 11,000 60 Climbing Jacksonville Center
12:10PM 29.9961 -82.4008 156° South 192 221 11,000  Level Jacksonville Center
12:11PM 29.9522 -82.3772 155° Southeast 188 216 11,000  Level Jacksonville Center
12:12PM 29.8939 -82.3703 174° South 184 212 11,000 -120 Level Jacksonville Center
12:13PM 29.8478 -82.3608 170° South 188 216 10,800 -420 Descending Jacksonville Center
12:14PM 29.7914 -82.3517 172° South 203 234 10,200 -540 Descending Jacksonville Center
12:15PM 29.7308 -82.3400 171° South 203 234 9,700 -480 Descending Jacksonville Center
12:16PM 29.6744 -82.3261 168° South 203 234 9,200 -720 Descending Jacksonville Center
12:17PM 29.6264 -82.3217 175° South 201 231 8,400 -840 Descending Jacksonville Center
12:18PM 29.5636 -82.3053 167° South 198 228 7,500 -720 Descending Jacksonville Center
12:19PM 29.5178 -82.2936 168° South 190 219 7,000 -420 Descending Jacksonville Center
12:20PM 29.4633 -82.2819 169° South 175 201 6,700 -420 Descending Jacksonville Center
12:21PM 29.4092 -82.2753 174° South 182 209 6,200 -540 Descending Jacksonville Center
12:22PM 29.3589 -82.2658 171° South 182 209 5,700 -540 Descending Jacksonville Center
12:23PM 29.3108 -82.2592 173° South 181 208 5,200 -360 Descending Jacksonville Center
12:24PM 29.2544 -82.2475 170° South 173 199 5,000 -120 Descending Jacksonville Center
12:25PM 29.2086 -82.2456 178° South 164 189 5,000  Level Jacksonville Center
12:26PM 29.1708 -82.2408 174° South 162 186 5,000  Level Jacksonville Center
12:27PM 29.1436 -82.1961 125° Southeast 157 181 5,000  Level Jacksonville Center
12:28PM 29.1203 -82.1508 121° Southeast 162 186 5,000  Level Jacksonville Center
12:29PM 29.0931 -82.1131 130° Southeast 161 185 5,000  Level Jacksonville Center
12:30PM 29.0656 -82.0731 128° Southeast 162 186 5,000  Level Jacksonville Center
12:31PM 29.0383 -82.0328 128° Southeast 162 186 5,000  Level Jacksonville Center
12:32PM 29.0108 -81.9975 132° Southeast 161 185 5,000 -60 Level Jacksonville Center
12:33PM 28.9792 -81.9503 127° Southeast 162 186 4,900 -540 Descending Jacksonville Center
12:36PM 28.9167 -81.8500 125° Southeast 159 183 3,200 -600 Descending Orlando TRACON
12:37PM 28.8833 -81.8000 127° Southeast 160 184 3,000 -300 Descending Orlando TRACON
12:38PM 28.8667 -81.7667 120° Southeast 164 189 2,600 -360 Descending Orlando TRACON
12:39PM 28.8333 -81.7333 139° Southeast 159 183 2,300 -300 Descending Orlando TRACON
12:40PM 28.8000 -81.6833 127° Southeast 160 184 2,100 -180 Descending Orlando TRACON
12:41PM 28.7667 -81.6500 139° Southeast 151 174 2,000  Descending Orlando TRACON
12:42PM 28.7500 -81.6167 120° Southeast 142 163 2,100  Climbing Orlando TRACON
12:43PM 28.7167 -81.5833 139° Southeast 143 165 2,100  Level Orlando TRACON
12:44PM 28.7000 -81.5500 120° Southeast 143 165 2,100 -180 Level Orlando TRACON
12:45PM 28.6667 -81.5167 139° Southeast 144 166 1,800 -360 Descending Orlando TRACON
12:46PM 28.6500 -81.4833 120° Southeast 141 162 1,400 -360 Descending Orlando TRACON
12:47PM 28.6167 -81.4500 139° Southeast 132 152 1,100 -180 Descending Orlando TRACON
12:48PM 28.6000 -81.4167 120° Southeast 128 147 1,100  Level Orlando TRACON
12:49PM 28.5667 -81.3833 139° Southeast 130 150 1,100 -120 Level Orlando TRACON
12:50PM 28.5500 -81.3667 139° Southeast 100 115 900 -360 Descending Orlando TRACON
12:51PM 28.5333 -81.3500 139° Southeast 81 93 400 -540 Descending Orlando TRACON
12:53PM 28.5455 -81.3329 90° East  Level Estimated
01:00PM 28.5455 -81.3329 90° East  Level Estimated
01:01PM 28.5455 -81.3329 90° East  Level Estimated
01:02PM 28.5455 -81.3329 90° East  Level Estimated
01:03PM 28.5455 -81.3329 90° East  Level Estimated